Detailed Flight Report of Nuri Burak ERKAL ;
Number CXD079 
Departure Aerodrome LTFE 
Arrival Aerodrome UBBB

Map generated by the Great Circle Mapper - copyright © Karl L. Swartz.

Pilot In Command CXD079 : Nuri Burak Erkal
Aircraft B773 / TC-NZL
Date Of Flight 2020-08-04
Departure Time 09:53 UTC
Arrival Time 12:18 UTC
Block Time 02:25
Distance 1,129 Nm.
Used Fuel 32,767 Lbs.
   
Detailed Flight Log [2020/08/04 09:37:00]
Flight IATA:C001
Pilot Number:079
Company ICAO:CXD
Aircraft Type:B773
Aircraft Registration:TC-NZL
Departing Airport: LTFE
Destination Airport: UBBB
Alternate Airport:UBBQ
Online: VATSIM
Route:AKBUK UT241 DEN UR32 HAY UW705 GEM UA285 SIV UA4 ERZ UB374 INDUR N449 GOTUB T447 INSAN
Flight Level:FL370
No pause
09:37 Zero fuel Weight: 489840 Lbs, Fuel Weight: 63926 Lbs
09:37 VATSIM:LTFE 032250Z 13002KT CAVOK 22/16 Q1006 NOSIG
09:37 VATSIM:UBBB 032300Z 35010KT CAVOK 23/18 Q1012 R88/CLRD// NOSIG
09:39 Parking Brakes off
09:46 VR= 172 Knots
09:46 V2= 180 Knots
09:46 Take-off
09:46 Take off Weight: 552730 Lbs
09:46 Wind: 130º @ 002 Knots Heading: 286º
09:46 POS N37º 15´ 11´´ E027º 39´ 25´´
09:46 N11 92 N12 92
09:46 Flaps:5º at 182 Knots
09:46 Gear Up: 188 Knots
09:46 Flaps:1º at 197 Knots
09:47 Flaps:Up at 249 Knots
10:01 Wind:267º@029 Knots Headi
ng: 060º Ground Speed: 521 Knots Altitude 32365 ft
10:04 TOC
10:04 Fuel Weight: 52697 Lb
10:16 Wind:260º@035 Knots Heading: 066º Ground Speed: 524 Knots Altitude 37119 ft
10:31 Wind:260º@037 Knots Heading: 079º Ground Speed: 526 Knots Altitude 37017 ft
10:46 Wind:260º@047 Knots Heading: 079º Ground Speed: 537 Knots Altitude 37080 ft
11:01 Wind:263º@055 Knots Heading: 090º Ground Speed: 544 Knots Altitude 36998 ft
11:16 Wind:267º@065 Knots Heading: 084º Ground Speed: 553 Knots Altitude 37080 ft
11:31 Wind:268º@077 Knots Heading: 088º Ground Speed: 566 Knots Altitude 36971 ft
11:34 TOD
11:34 Fuel Weight: 30099 Lb
11:46 Wind:272º@043 Knots Heading: 087º Ground Speed: 454 Knots Altitude 26056 ft
11:58 Gear Down: 262 Knots
11:59 Gear Up: 251 Knots
11:59 Gear Down: 248 Knots
11:59 Flaps:1º at 211 Knots
11:59 Flaps:5º at 193 Knots
11:59 Flaps:15º at 179 Knots
12:00
Flaps:30º at 167 Knots
12:00 Flaps:35º at 159 Knots
12:00 Flaps:Full at 156 Knots
12:01 Wind:009º@015 Knots Heading: 348º Ground Speed: 139 Knots Altitude 1607 ft
12:03 TouchDown:Rate -95 ft/min Speed: 128 Knots
12:03 VATSIM:UBBB 040130Z 34008KT CAVOK 24/17 Q1012 R88/CLRD// NOSIG
12:03 Land
12:03 Wind:339º@008 Knots
12:03 Heading: 345º
12:03 Flight Duration: 02:17
12:03 Landing Weight: 515672 Lbs
12:03 POS N40º 29´ 01´´ E050º 01´ 57´´
12:04 Parking brakes on
12:04 Block to Block Duration: 02:25
12:04 Final Fuel: 25811 Lbls
12:04 Spent Fuel: 38115 Lbls
12:04 Flight Length: 1129 NM
12:04 TOD Land Length: 188 NM

Text Link of Flight Log http://www.candanair.net/acars/logs/CXD07920200804093700.txt
   

[ Back ]